Time;durP1;ratioP1;P1;durP2;ratioP2;P2;SDS_P1;SDS_P2;PMS_P1;PMS_P2;Temp;Humidity;BMP_temperature;BMP_pressure;BME280_temperature;BME280_humidity;BME280_pressure;Samples;Min_cycle;Max_cycle;Signal;HPM_P1;HPM_P2
2023/06/18 00:01:06;;;;;;;6.07;4.90;;;22.70;55.40;;;;;;5028820;28;20208;-69
2023/06/18 00:03:32;;;;;;;5.00;4.60;;;22.70;55.40;;;;;;5012683;28;20222;-70
2023/06/18 00:06:00;;;;;;;4.95;4.55;;;22.70;55.40;;;;;;5028980;28;20196;-69
2023/06/18 00:08:26;;;;;;;5.22;4.80;;;22.70;55.40;;;;;;5012252;28;20678;-70
2023/06/18 00:10:52;;;;;;;5.60;5.10;;;22.70;55.40;;;;;;5028725;28;20208;-70
2023/06/18 00:13:18;;;;;;;4.68;4.28;;;22.70;55.50;;;;;;5028681;28;20675;-69
2023/06/18 00:15:45;;;;;;;5.32;4.75;;;22.70;55.50;;;;;;5012633;28;20311;-69
2023/06/18 00:18:11;;;;;;;5.00;4.65;;;22.70;55.50;;;;;;5027947;28;20629;-69
2023/06/18 00:20:37;;;;;;;5.15;4.70;;;22.70;55.50;;;;;;5028275;28;20200;-69
2023/06/18 00:23:03;;;;;;;5.43;4.93;;;22.70;55.50;;;;;;5013431;28;20211;-69
2023/06/18 00:25:29;;;;;;;4.90;4.50;;;22.70;55.50;;;;;;5028652;28;20219;-70
2023/06/18 00:27:55;;;;;;;5.28;4.80;;;22.70;55.50;;;;;;5028621;28;20268;-70
2023/06/18 00:30:21;;;;;;;5.68;5.18;;;22.60;55.40;;;;;;5012168;28;20204;-69
2023/06/18 00:32:48;;;;;;;5.68;5.18;;;22.60;55.40;;;;;;5013284;28;20212;-70
2023/06/18 00:35:15;;;;;;;5.50;4.97;;;22.70;55.50;;;;;;5032701;28;20182;-70
2023/06/18 00:37:44;;;;;;;5.35;4.95;;;22.60;55.40;;;;;;5015493;28;20194;-70
2023/06/18 00:40:15;;;;;;;4.90;4.50;;;22.60;55.50;;;;;;5015213;28;20206;-69
2023/06/18 00:42:41;;;;;;;5.22;4.80;;;22.60;55.50;;;;;;5015448;28;20175;-70
2023/06/18 00:45:09;;;;;;;4.68;4.38;;;22.60;55.50;;;;;;5031631;28;20191;-70
2023/06/18 00:47:44;;;;;;;5.63;5.10;;;22.60;55.40;;;;;;5015357;28;20183;-69
2023/06/18 00:50:15;;;;;;;5.45;5.03;;;22.60;55.50;;;;;;5031346;28;20592;-70
2023/06/18 00:52:47;;;;;;;5.10;4.65;;;22.60;55.50;;;;;;5011740;28;20219;-70
2023/06/18 00:55:16;;;;;;;5.40;4.90;;;22.60;55.50;;;;;;5011663;28;20191;-70
2023/06/18 00:57:49;;;;;;;5.40;4.95;;;22.60;55.40;;;;;;5028170;28;20183;-69
2023/06/18 01:00:19;;;;;;;5.25;4.85;;;22.60;55.50;;;;;;5028193;28;20214;-69
2023/06/18 01:02:49;;;;;;;5.65;5.15;;;22.60;55.50;;;;;;5011794;28;20180;-70
2023/06/18 01:05:16;;;;;;;5.60;5.13;;;22.60;55.50;;;;;;5011563;28;20199;-70
2023/06/18 01:07:47;;;;;;;5.75;5.20;;;22.60;55.50;;;;;;5011434;28;20191;-71
2023/06/18 01:10:15;;;;;;;5.00;4.60;;;22.60;55.50;;;;;;4995042;28;20250;-69
2023/06/18 01:12:48;;;;;;;5.45;4.95;;;22.60;55.50;;;;;;5012611;28;20196;-70
2023/06/18 01:15:16;;;;;;;5.30;4.90;;;22.60;55.50;;;;;;4995322;28;20238;-70
2023/06/18 01:17:48;;;;;;;5.28;4.60;;;22.50;55.50;;;;;;4995210;28;20674;-69
2023/06/18 01:20:17;;;;;;;5.35;4.95;;;22.60;55.50;;;;;;4994919;28;20304;-70
2023/06/18 01:23:02;;;;;;;5.32;4.93;;;22.60;55.60;;;;;;5010849;28;20233;-70
2023/06/18 01:25:32;;;;;;;5.68;5.18;;;22.60;55.60;;;;;;5031085;28;20179;-70
2023/06/18 01:28:07;;;;;;;5.05;4.65;;;22.60;55.50;;;;;;5031990;28;20195;-69
2023/06/18 01:30:39;;;;;;;5.50;5.10;;;22.60;55.50;;;;;;5015531;28;20210;-70
2023/06/18 01:33:09;;;;;;;5.20;4.80;;;22.60;55.60;;;;;;5018223;28;20226;-70
2023/06/18 01:35:35;;;;;;;6.00;5.50;;;22.60;55.50;;;;;;5018255;28;20236;-69
2023/06/18 01:38:13;;;;;;;5.13;4.72;;;22.50;55.50;;;;;;5018124;28;20179;-72
2023/06/18 01:40:52;;;;;;;5.40;4.93;;;22.60;55.50;;;;;;5034258;28;20227;-70
2023/06/18 01:43:30;;;;;;;5.15;4.75;;;22.60;55.60;;;;;;5018352;28;20187;-70
2023/06/18 01:46:03;;;;;;;5.93;5.43;;;22.50;55.50;;;;;;5017802;28;20210;-70
2023/06/18 01:48:41;;;;;;;5.78;5.28;;;22.50;55.50;;;;;;5034324;28;20191;-69
2023/06/18 01:51:11;;;;;;;5.78;5.25;;;22.50;55.50;;;;;;5017415;28;20187;-69
2023/06/18 01:53:39;;;;;;;5.75;5.25;;;22.50;55.50;;;;;;5018112;28;20215;-69
2023/06/18 01:56:09;;;;;;;5.32;4.82;;;22.50;55.50;;;;;;5017855;28;20240;-69
2023/06/18 01:58:36;;;;;;;5.68;5.18;;;22.50;55.50;;;;;;5035560;28;20194;-69
2023/06/18 02:01:03;;;;;;;5.60;5.10;;;22.50;55.50;;;;;;5017562;28;20210;-69
2023/06/18 02:03:29;;;;;;;5.88;5.38;;;22.50;55.60;;;;;;5017717;28;20278;-70
2023/06/18 02:05:55;;;;;;;5.50;5.00;;;22.50;55.60;;;;;;5033261;28;20277;-69
2023/06/18 02:08:21;;;;;;;5.18;4.78;;;22.60;56.20;;;;;;5012130;28;20216;-69
2023/06/18 02:10:47;;;;;;;5.53;5.13;;;22.50;55.60;;;;;;5014064;28;20289;-70
2023/06/18 02:13:13;;;;;;;6.00;5.43;;;22.50;55.60;;;;;;4998665;28;20246;-69
2023/06/18 02:15:41;;;;;;;5.90;5.40;;;22.50;55.60;;;;;;5015013;28;20595;-69
2023/06/18 02:18:08;;;;;;;5.68;5.25;;;22.50;55.60;;;;;;5014846;28;20191;-69
2023/06/18 02:20:35;;;;;;;5.60;5.10;;;22.50;55.60;;;;;;5014293;28;20208;-69
2023/06/18 02:23:01;;;;;;;5.55;5.10;;;22.50;55.60;;;;;;4998204;28;20539;-69
2023/06/18 02:25:29;;;;;;;6.00;5.50;;;22.50;55.60;;;;;;5014314;28;20191;-68
2023/06/18 02:27:58;;;;;;;5.97;5.40;;;22.50;55.60;;;;;;5004827;28;20192;-69
2023/06/18 02:30:26;;;;;;;5.40;5.00;;;22.50;55.60;;;;;;5014657;28;20236;-69
2023/06/18 02:32:52;;;;;;;5.57;5.18;;;22.50;55.60;;;;;;5015266;28;20274;-69
2023/06/18 02:35:19;;;;;;;5.18;4.68;;;22.50;55.60;;;;;;5014320;28;20180;-70
2023/06/18 02:37:45;;;;;;;5.47;4.97;;;22.50;55.60;;;;;;5014194;28;20218;-69
2023/06/18 02:40:13;;;;;;;6.50;5.72;;;22.50;55.70;;;;;;5020659;28;20204;-68
2023/06/18 02:42:46;;;;;;;5.72;5.20;;;22.50;55.60;;;;;;5029102;28;20271;-69
2023/06/18 02:45:18;;;;;;;5.45;5.00;;;22.50;55.60;;;;;;5017640;28;20203;-69
2023/06/18 02:47:45;;;;;;;5.85;5.35;;;22.50;55.60;;;;;;5025934;28;20666;-70
2023/06/18 02:50:12;;;;;;;5.50;5.03;;;22.50;55.60;;;;;;5025292;28;20199;-70
2023/06/18 02:52:40;;;;;;;5.20;4.80;;;22.40;55.50;;;;;;5025238;28;20217;-69
2023/06/18 02:55:07;;;;;;;5.65;5.03;;;22.50;55.60;;;;;;5009304;28;20188;-69
2023/06/18 02:57:38;;;;;;;5.63;5.20;;;22.50;55.60;;;;;;5033442;28;20183;-69
2023/06/18 03:00:11;;;;;;;5.68;5.18;;;22.50;55.70;;;;;;5033667;28;20232;-70
2023/06/18 03:02:42;;;;;;;6.40;5.80;;;22.40;55.60;;;;;;5001571;28;20192;-69
2023/06/18 03:05:12;;;;;;;5.35;4.95;;;22.50;55.70;;;;;;4998046;28;20202;-69
2023/06/18 03:07:37;;;;;;;5.25;4.85;;;22.40;56.20;;;;;;5029623;28;20199;-69
2023/06/18 03:10:04;;;;;;;6.10;5.60;;;22.50;55.70;;;;;;5033051;28;20218;-69
2023/06/18 03:12:31;;;;;;;5.93;5.32;;;22.40;55.60;;;;;;5009991;28;20216;-69
2023/06/18 03:15:00;;;;;;;5.70;5.10;;;22.50;55.70;;;;;;5000617;28;20195;-69
2023/06/18 03:17:27;;;;;;;5.47;4.97;;;22.40;55.60;;;;;;5033460;28;20190;-69
2023/06/18 03:19:53;;;;;;;5.50;5.00;;;22.40;55.60;;;;;;5014705;28;20290;-70
2023/06/18 03:22:21;;;;;;;5.80;5.30;;;22.40;55.60;;;;;;5007693;28;20279;-68
2023/06/18 03:24:49;;;;;;;5.82;5.25;;;22.40;55.60;;;;;;5013443;28;20218;-69
2023/06/18 03:27:15;;;;;;;5.85;5.35;;;22.40;55.60;;;;;;5018116;28;20241;-69
2023/06/18 03:29:42;;;;;;;5.70;5.20;;;22.40;55.60;;;;;;5041305;28;20211;-69
2023/06/18 03:32:09;;;;;;;5.78;5.38;;;22.40;55.60;;;;;;5012232;28;20215;-70
2023/06/18 03:34:38;;;;;;;5.65;5.15;;;22.40;55.60;;;;;;5019418;28;20184;-69
2023/06/18 03:37:04;;;;;;;5.93;5.43;;;22.40;55.60;;;;;;5049458;28;20184;-69
2023/06/18 03:39:31;;;;;;;6.22;5.63;;;22.40;55.60;;;;;;5032752;28;20199;-69
2023/06/18 03:41:58;;;;;;;5.57;5.00;;;22.40;55.60;;;;;;5032673;28;20175;-68
2023/06/18 03:44:24;;;;;;;5.35;4.88;;;22.40;55.60;;;;;;5016446;28;20214;-69
2023/06/18 03:46:50;;;;;;;5.90;5.40;;;22.40;55.60;;;;;;5016168;28;20187;-69
2023/06/18 03:49:16;;;;;;;5.40;5.00;;;22.40;55.60;;;;;;5012537;28;20299;-69
2023/06/18 03:51:42;;;;;;;5.53;5.03;;;22.40;55.60;;;;;;5012710;28;20264;-71
2023/06/18 03:54:08;;;;;;;5.55;5.15;;;22.40;55.60;;;;;;5012021;28;20278;-70
2023/06/18 03:56:35;;;;;;;5.53;5.03;;;22.40;55.60;;;;;;5028234;28;20188;-70
2023/06/18 03:59:03;;;;;;;5.65;5.15;;;22.40;55.90;;;;;;5024326;28;20211;-69
2023/06/18 04:01:29;;;;;;;5.78;5.28;;;22.40;55.60;;;;;;5032120;28;20230;-69
2023/06/18 04:03:56;;;;;;;5.70;5.20;;;22.40;55.60;;;;;;5016152;28;20180;-70
2023/06/18 04:06:22;;;;;;;6.13;5.63;;;22.40;55.60;;;;;;5016059;28;20577;-69
2023/06/18 04:08:48;;;;;;;5.40;5.00;;;22.40;55.60;;;;;;5032083;28;20242;-69
2023/06/18 04:11:14;;;;;;;5.43;4.93;;;22.40;55.60;;;;;;5015450;28;20198;-69
2023/06/18 04:13:42;;;;;;;6.28;5.68;;;22.40;55.60;;;;;;5015900;28;20213;-69
2023/06/18 04:16:10;;;;;;;5.82;5.32;;;22.40;55.60;;;;;;5029190;28;20192;-70
2023/06/18 04:18:36;;;;;;;6.18;5.57;;;22.40;55.60;;;;;;5008163;28;20545;-70
2023/06/18 04:21:03;;;;;;;5.95;5.45;;;22.40;55.60;;;;;;5006888;28;20207;-69
2023/06/18 04:23:30;;;;;;;5.75;5.25;;;22.40;55.70;;;;;;5031883;28;20230;-70
2023/06/18 04:25:56;;;;;;;5.57;5.18;;;22.40;55.70;;;;;;5015637;28;20282;-69
2023/06/18 04:28:22;;;;;;;5.60;5.10;;;22.40;55.70;;;;;;5015462;28;20277;-69
2023/06/18 04:30:49;;;;;;;5.70;5.20;;;22.40;55.70;;;;;;5031562;28;20280;-70
2023/06/18 04:33:15;;;;;;;6.03;5.43;;;22.40;55.70;;;;;;5021824;28;20237;-69
2023/06/18 04:35:44;;;;;;;5.45;4.95;;;22.40;55.70;;;;;;5015558;28;20277;-70
2023/06/18 04:38:11;;;;;;;5.82;5.18;;;22.40;55.80;;;;;;5011838;28;20188;-71
2023/06/18 04:40:37;;;;;;;5.93;5.43;;;22.40;55.80;;;;;;5011775;28;20208;-69
2023/06/18 04:43:03;;;;;;;5.60;5.20;;;22.40;55.80;;;;;;5014915;28;20266;-69
2023/06/18 04:45:33;;;;;;;6.13;5.50;;;22.30;55.70;;;;;;5016054;28;20187;-70
2023/06/18 04:48:00;;;;;;;5.35;4.95;;;22.30;55.80;;;;;;5030901;28;20567;-70
2023/06/18 04:50:26;;;;;;;5.68;5.28;;;22.30;55.80;;;;;;5032221;28;20210;-69
2023/06/18 04:52:52;;;;;;;5.80;5.38;;;22.40;55.90;;;;;;5014746;28;20210;-69
2023/06/18 04:55:20;;;;;;;6.05;5.50;;;22.40;55.80;;;;;;5031387;28;20175;-69
2023/06/18 04:57:46;;;;;;;5.78;5.28;;;22.40;55.90;;;;;;5031450;28;20186;-69
2023/06/18 05:00:12;;;;;;;5.65;5.15;;;22.30;55.80;;;;;;5015245;28;20254;-69
2023/06/18 05:02:41;;;;;;;5.45;5.05;;;22.40;55.90;;;;;;5014959;28;20187;-70
2023/06/18 05:05:08;;;;;;;5.72;5.22;;;22.40;55.90;;;;;;5022798;28;20206;-70
2023/06/18 05:07:34;;;;;;;5.95;5.45;;;22.30;55.80;;;;;;5043606;28;20188;-69
2023/06/18 05:10:00;;;;;;;5.55;5.05;;;22.30;56.40;;;;;;5014609;28;20230;-69
2023/06/18 05:12:26;;;;;;;5.40;5.00;;;22.40;55.90;;;;;;5014907;28;20298;-69
2023/06/18 05:14:53;;;;;;;5.55;5.15;;;22.40;55.90;;;;;;5014675;28;20182;-69
2023/06/18 05:17:18;;;;;;;5.35;4.93;;;22.40;55.90;;;;;;5009594;28;20188;-69
2023/06/18 05:19:44;;;;;;;5.57;5.18;;;22.30;55.90;;;;;;5020664;28;20240;-69
2023/06/18 05:22:10;;;;;;;5.93;5.38;;;22.30;55.90;;;;;;5014000;28;20187;-69
2023/06/18 05:24:39;;;;;;;5.82;5.32;;;22.30;55.90;;;;;;5014937;28;20270;-69
2023/06/18 05:27:06;;;;;;;5.90;5.40;;;22.30;55.90;;;;;;5011592;28;20262;-69
2023/06/18 05:29:32;;;;;;;5.47;5.07;;;22.30;56.00;;;;;;5026311;28;20260;-70
2023/06/18 05:31:58;;;;;;;5.65;5.15;;;22.30;56.60;;;;;;5027766;28;20615;-69
2023/06/18 05:34:30;;;;;;;5.80;5.30;;;22.30;56.00;;;;;;5039511;28;20188;-69
2023/06/18 05:36:56;;;;;;;5.40;5.00;;;22.30;56.00;;;;;;5013249;28;20254;-69
2023/06/18 05:39:23;;;;;;;5.03;4.63;;;22.30;56.00;;;;;;5014768;28;20210;-70
2023/06/18 05:41:50;;;;;;;6.00;5.50;;;22.30;56.00;;;;;;5030717;28;20277;-69
2023/06/18 05:44:18;;;;;;;5.53;5.10;;;22.30;56.00;;;;;;5014940;28;20202;-69
2023/06/18 05:46:43;;;;;;;5.88;5.38;;;22.30;56.00;;;;;;5022903;28;20597;-69
2023/06/18 05:49:10;;;;;;;4.95;4.55;;;22.30;56.10;;;;;;5006337;28;20219;-69
2023/06/18 05:51:36;;;;;;;5.88;5.47;;;22.30;56.10;;;;;;5022806;28;20290;-69
2023/06/18 05:54:04;;;;;;;5.90;5.40;;;22.30;56.10;;;;;;5022903;28;20233;-69
2023/06/18 05:56:30;;;;;;;5.40;5.00;;;22.30;56.10;;;;;;5030711;28;20179;-69
2023/06/18 05:58:56;;;;;;;5.55;5.05;;;22.40;56.20;;;;;;5014515;28;20697;-69
2023/06/18 06:01:27;;;;;;;5.90;5.40;;;22.40;56.20;;;;;;5015224;28;20190;-70
2023/06/18 06:03:53;;;;;;;6.03;5.47;;;22.30;56.70;;;;;;5030633;28;20196;-69
2023/06/18 06:06:19;;;;;;;5.97;5.47;;;22.30;56.20;;;;;;5014145;28;20194;-69
2023/06/18 06:08:46;;;;;;;5.68;5.18;;;22.30;56.20;;;;;;5029946;28;20237;-70
2023/06/18 06:11:13;;;;;;;5.10;4.70;;;22.40;56.30;;;;;;5011857;28;20184;-68
2023/06/18 06:13:39;;;;;;;5.70;5.20;;;22.30;56.30;;;;;;4999072;28;20223;-69
2023/06/18 06:16:08;;;;;;;5.78;5.28;;;22.30;56.30;;;;;;5003878;28;20193;-70
2023/06/18 06:18:34;;;;;;;5.80;5.30;;;22.30;56.30;;;;;;4997804;28;20223;-69
2023/06/18 06:21:00;;;;;;;5.40;4.90;;;22.30;56.90;;;;;;4997850;28;20226;-69
2023/06/18 06:23:26;;;;;;;5.55;5.15;;;22.40;56.40;;;;;;5031506;28;20194;-69
2023/06/18 06:25:51;;;;;;;5.22;4.82;;;22.40;56.40;;;;;;5033786;28;20195;-69
2023/06/18 06:28:17;;;;;;;5.38;4.97;;;22.40;56.40;;;;;;5033778;28;20237;-69
2023/06/18 06:30:44;;;;;;;5.43;5.03;;;22.40;56.40;;;;;;5007259;28;20217;-68
2023/06/18 06:33:10;;;;;;;5.53;5.07;;;22.40;56.40;;;;;;5014237;28;20216;-69
2023/06/18 06:35:38;;;;;;;5.53;5.05;;;22.40;56.40;;;;;;5014112;28;20187;-69
2023/06/18 06:38:04;;;;;;;5.88;5.28;;;22.40;56.40;;;;;;5008733;28;20194;-69
2023/06/18 06:40:31;;;;;;;5.80;5.30;;;22.40;56.40;;;;;;5009926;28;20219;-70
2023/06/18 06:42:57;;;;;;;5.88;5.35;;;22.40;56.20;;;;;;5030348;28;20187;-70
2023/06/18 06:45:46;;;;;;;5.43;5.03;;;22.40;56.20;;;;;;5033123;28;20218;-69
2023/06/18 06:48:20;;;;;;;5.38;4.97;;;22.40;56.20;;;;;;5022165;28;20606;-70
2023/06/18 06:51:05;;;;;;;4.95;4.55;;;22.40;56.10;;;;;;5015994;28;20211;-70
2023/06/18 06:53:34;;;;;;;5.55;5.15;;;22.40;56.10;;;;;;5013516;28;20207;-68
2023/06/18 06:56:00;;;;;;;5.38;4.95;;;22.40;56.10;;;;;;5010736;28;20195;-69
2023/06/18 06:58:27;;;;;;;5.22;4.82;;;22.50;56.20;;;;;;5013938;28;20184;-70
2023/06/18 07:00:53;;;;;;;5.90;5.40;;;22.50;56.10;;;;;;5008838;28;20234;-69
2023/06/18 07:03:19;;;;;;;5.47;5.07;;;22.50;56.00;;;;;;5032366;28;20187;-69
2023/06/18 07:05:45;;;;;;;5.03;4.63;;;22.50;56.00;;;;;;5030605;28;20210;-69
2023/06/18 07:08:11;;;;;;;5.20;4.80;;;22.50;56.00;;;;;;5029206;28;20204;-70
2023/06/18 07:10:36;;;;;;;5.40;4.90;;;22.50;55.90;;;;;;5012173;28;20206;-70
2023/06/18 07:13:02;;;;;;;4.72;4.40;;;22.50;56.00;;;;;;5044157;28;20211;-70
2023/06/18 07:15:28;;;;;;;5.57;5.15;;;22.50;55.80;;;;;;5029177;28;20184;-71
2023/06/18 07:17:54;;;;;;;5.68;5.18;;;22.50;55.90;;;;;;5010518;28;20187;-70
2023/06/18 07:20:20;;;;;;;5.13;4.70;;;22.50;55.80;;;;;;5007173;28;20584;-70
2023/06/18 07:22:46;;;;;;;5.03;4.63;;;22.50;55.80;;;;;;5013482;28;20203;-70
2023/06/18 07:25:12;;;;;;;5.85;5.35;;;22.50;55.80;;;;;;5033863;28;20184;-70
2023/06/18 07:27:38;;;;;;;5.78;5.20;;;22.50;55.80;;;;;;5011354;28;20184;-72
2023/06/18 07:30:04;;;;;;;5.28;4.78;;;22.50;55.70;;;;;;5005561;28;20222;-70
2023/06/18 07:32:30;;;;;;;5.43;5.03;;;22.50;55.70;;;;;;5019023;28;20290;-70
2023/06/18 07:34:55;;;;;;;5.05;4.65;;;22.50;56.30;;;;;;5014770;28;20213;-70
2023/06/18 07:37:21;;;;;;;5.13;4.72;;;22.50;55.60;;;;;;5021616;28;20211;-71
2023/06/18 07:39:47;;;;;;;5.15;4.75;;;22.50;55.60;;;;;;5032830;28;20211;-70
2023/06/18 07:42:13;;;;;;;4.93;4.60;;;22.50;55.70;;;;;;5030371;28;20195;-70
2023/06/18 07:44:38;;;;;;;5.35;4.95;;;22.50;55.60;;;;;;5030968;28;20187;-71
2023/06/18 07:47:04;;;;;;;5.35;4.90;;;22.50;55.60;;;;;;5007522;28;20560;-70
2023/06/18 07:49:30;;;;;;;5.32;4.82;;;22.60;55.70;;;;;;5016259;28;20290;-70
2023/06/18 07:51:56;;;;;;;5.00;4.60;;;22.60;55.70;;;;;;5012902;28;20769;-72
2023/06/18 07:54:21;;;;;;;5.05;4.65;;;22.60;55.60;;;;;;5027104;28;20188;-70
2023/06/18 07:56:47;;;;;;;5.57;5.03;;;22.60;55.60;;;;;;5011269;28;20188;-71
2023/06/18 07:59:13;;;;;;;5.30;4.90;;;22.60;55.60;;;;;;5016235;28;20210;-70
2023/06/18 08:01:39;;;;;;;5.30;4.80;;;22.60;55.60;;;;;;5016059;28;20317;-70
2023/06/18 08:04:04;;;;;;;5.50;5.00;;;22.60;55.40;;;;;;5015811;28;20183;-70
2023/06/18 08:06:30;;;;;;;5.35;4.85;;;22.60;55.50;;;;;;5015846;28;20183;-69
2023/06/18 08:08:56;;;;;;;5.07;4.68;;;22.60;55.60;;;;;;5019538;28;20620;-70
2023/06/18 08:11:22;;;;;;;4.93;4.53;;;22.60;55.60;;;;;;5013694;28;20172;-69
2023/06/18 08:13:47;;;;;;;5.53;5.03;;;22.60;55.60;;;;;;5029991;28;20228;-70
2023/06/18 08:16:13;;;;;;;5.30;4.90;;;22.60;55.60;;;;;;5015542;28;20189;-70
2023/06/18 08:18:39;;;;;;;5.50;4.70;;;22.70;55.60;;;;;;5032017;28;20298;-70
2023/06/18 08:21:04;;;;;;;5.40;4.90;;;22.60;55.60;;;;;;5031694;28;20215;-70
2023/06/18 08:23:30;;;;;;;5.30;4.88;;;22.60;55.50;;;;;;5007725;28;20222;-69
2023/06/18 08:25:56;;;;;;;5.28;4.88;;;22.60;55.50;;;;;;5015661;28;20274;-70
2023/06/18 08:28:21;;;;;;;5.82;5.32;;;22.60;55.50;;;;;;5031862;28;20698;-70
2023/06/18 08:30:47;;;;;;;5.55;5.05;;;22.60;55.40;;;;;;5014802;28;20617;-71
2023/06/18 08:33:13;;;;;;;5.15;4.75;;;22.70;55.60;;;;;;5031874;28;20214;-70
2023/06/18 08:35:39;;;;;;;6.28;4.90;;;22.60;55.60;;;;;;5015264;28;20187;-70
2023/06/18 08:38:05;;;;;;;5.25;4.75;;;22.70;55.60;;;;;;5031264;28;20202;-70
2023/06/18 08:41:00;;;;;;;4.80;4.40;;;22.70;55.50;;;;;;5033177;28;20207;-70
2023/06/18 08:43:31;;;;;;;5.00;4.60;;;22.70;55.60;;;;;;5007483;28;20195;-70
2023/06/18 08:46:11;;;;;;;4.82;4.00;;;22.70;55.60;;;;;;5032612;28;20199;-69
2023/06/18 08:48:49;;;;;;;5.10;4.70;;;22.70;55.70;;;;;;5031640;28;20183;-70
2023/06/18 08:51:17;;;;;;;5.05;4.63;;;22.80;55.70;;;;;;5015266;28;20217;-70
2023/06/18 08:53:55;;;;;;;5.03;4.63;;;22.80;56.00;;;;;;5015036;28;20215;-70
2023/06/18 08:56:25;;;;;;;5.38;4.90;;;22.80;55.80;;;;;;5027805;28;20188;-70
2023/06/18 08:58:57;;;;;;;4.88;4.47;;;22.80;55.70;;;;;;5011234;28;20191;-70
2023/06/18 09:01:24;;;;;;;6.00;5.05;;;22.80;55.80;;;;;;5008979;28;20221;-73
2023/06/18 09:03:55;;;;;;;4.57;4.20;;;22.80;55.50;;;;;;5015473;28;20187;-71
2023/06/18 09:06:22;;;;;;;6.15;4.97;;;22.80;55.60;;;;;;5026649;28;20199;-72
2023/06/18 09:08:48;;;;;;;5.30;4.90;;;22.80;55.70;;;;;;5028526;28;20202;-69
2023/06/18 09:11:15;;;;;;;5.07;4.68;;;22.80;55.70;;;;;;5006663;28;20190;-70
2023/06/18 09:13:42;;;;;;;4.85;4.45;;;22.80;55.70;;;;;;5014050;28;20227;-70
2023/06/18 09:16:09;;;;;;;6.20;4.95;;;22.80;55.60;;;;;;5030901;28;20187;-69
2023/06/18 09:18:35;;;;;;;6.05;4.38;;;22.80;55.60;;;;;;5011762;28;20196;-70
2023/06/18 09:21:03;;;;;;;5.03;4.63;;;22.80;55.70;;;;;;5011295;28;20212;-69
2023/06/18 09:23:30;;;;;;;5.57;5.07;;;22.80;55.70;;;;;;4998287;28;20211;-68
2023/06/18 09:25:57;;;;;;;4.80;4.40;;;22.80;55.80;;;;;;5045907;28;20195;-67
2023/06/18 09:28:25;;;;;;;5.18;4.68;;;22.80;55.60;;;;;;5014941;28;20193;-72
2023/06/18 09:30:53;;;;;;;5.45;4.95;;;22.80;55.80;;;;;;5028827;28;20215;-70
2023/06/18 09:33:34;;;;;;;4.95;4.55;;;22.80;55.80;;;;;;5013734;28;20215;-70
2023/06/18 09:36:05;;;;;;;5.50;5.00;;;22.80;55.80;;;;;;5029755;28;20195;-72
2023/06/18 09:38:39;;;;;;;5.40;4.90;;;22.90;55.90;;;;;;5016314;28;20193;-70
2023/06/18 09:41:17;;;;;;;5.88;5.45;;;22.80;55.80;;;;;;5014272;28;20303;-70
2023/06/18 09:43:48;;;;;;;5.18;4.70;;;22.80;55.90;;;;;;5030853;28;20198;-69
2023/06/18 09:46:16;;;;;;;4.40;4.00;;;22.90;56.20;;;;;;5006344;28;20221;-70
2023/06/18 09:48:45;;;;;;;5.55;5.07;;;22.90;56.10;;;;;;4998352;28;20581;-70
2023/06/18 09:51:15;;;;;;;5.63;5.13;;;22.90;56.20;;;;;;5024058;28;20184;-70
2023/06/18 09:53:43;;;;;;;14.05;5.45;;;22.90;56.20;;;;;;5010431;28;20210;-70
2023/06/18 09:56:15;;;;;;;6.15;4.97;;;22.90;56.00;;;;;;5031243;28;20686;-70
2023/06/18 09:58:49;;;;;;;5.43;4.93;;;22.90;55.90;;;;;;5017044;28;20218;-71
2023/06/18 10:01:18;;;;;;;6.07;5.35;;;22.90;55.90;;;;;;5022968;28;20733;-70
2023/06/18 10:03:46;;;;;;;5.40;5.00;;;22.90;56.00;;;;;;5031820;28;20191;-70
2023/06/18 10:06:18;;;;;;;5.40;4.90;;;22.90;56.00;;;;;;5031199;28;20204;-70
2023/06/18 10:08:51;;;;;;;5.30;4.90;;;22.90;56.00;;;;;;5023788;28;20195;-71
2023/06/18 10:11:19;;;;;;;5.40;4.90;;;22.90;55.90;;;;;;5049089;28;20190;-71
2023/06/18 10:13:50;;;;;;;5.40;4.95;;;22.90;56.00;;;;;;5037385;28;20306;-70
2023/06/18 10:16:20;;;;;;;6.85;5.00;;;22.90;56.00;;;;;;5022757;28;20184;-70
2023/06/18 10:19:24;;;;;;;5.90;5.30;;;22.90;55.90;;;;;;5032486;28;20218;-67
2023/06/18 10:21:58;;;;;;;6.05;4.68;;;22.90;55.80;;;;;;5024537;28;20201;-70
2023/06/18 10:24:46;;;;;;;5.57;4.93;;;22.90;55.80;;;;;;5033614;28;20179;-68
2023/06/18 10:27:14;;;;;;;6.32;4.82;;;22.90;55.70;;;;;;5041479;28;20213;-71
2023/06/18 10:29:41;;;;;;;5.55;5.07;;;22.90;55.80;;;;;;5030422;28;20223;-70
2023/06/18 10:32:07;;;;;;;6.00;5.03;;;22.90;55.90;;;;;;5029529;28;20211;-71
2023/06/18 10:34:33;;;;;;;5.00;4.60;;;22.90;55.90;;;;;;5022159;28;20222;-70
2023/06/18 10:37:00;;;;;;;5.68;5.18;;;22.90;55.80;;;;;;5033106;28;20179;-69
2023/06/18 10:39:28;;;;;;;5.78;4.85;;;22.90;55.90;;;;;;5017731;28;20258;-70
2023/06/18 10:41:55;;;;;;;5.43;4.93;;;22.90;55.60;;;;;;5015463;28;20207;-70
2023/06/18 10:44:47;;;;;;;5.40;4.90;;;22.90;55.80;;;;;;5017458;28;20231;-71
2023/06/18 10:47:28;;;;;;;5.10;4.70;;;22.90;55.80;;;;;;5017122;28;20175;-71
2023/06/18 10:50:00;;;;;;;7.53;5.47;;;22.90;55.90;;;;;;5050296;28;20209;-71
2023/06/18 10:52:29;;;;;;;5.68;5.28;;;22.90;56.00;;;;;;5033661;28;20215;-69
2023/06/18 10:55:04;;;;;;;5.40;4.93;;;22.90;56.00;;;;;;5023348;28;20218;-71
2023/06/18 10:57:30;;;;;;;5.68;5.20;;;23.00;56.10;;;;;;5019544;28;20171;-70
2023/06/18 10:59:59;;;;;;;6.47;5.60;;;23.00;56.10;;;;;;5033755;28;20582;-70
2023/06/18 11:02:37;;;;;;;6.32;5.68;;;22.90;56.00;;;;;;5046380;28;20190;-72
2023/06/18 11:05:03;;;;;;;7.30;5.32;;;22.90;56.00;;;;;;5016923;28;20194;-70
2023/06/18 11:07:30;;;;;;;5.75;5.25;;;23.00;56.10;;;;;;5017124;28;20175;-71
2023/06/18 11:09:58;;;;;;;5.82;5.32;;;23.00;56.20;;;;;;5034802;28;20289;-69
2023/06/18 11:12:27;;;;;;;5.45;4.70;;;22.90;56.00;;;;;;5016806;28;20207;-69
2023/06/18 11:15:22;;;;;;;6.03;5.38;;;22.90;56.00;;;;;;5031870;28;20222;-70
2023/06/18 11:17:53;;;;;;;6.00;5.50;;;23.00;55.90;;;;;;5000992;28;20228;-69
2023/06/18 11:20:23;;;;;;;6.53;5.07;;;23.00;55.80;;;;;;5029865;28;20227;-72
2023/06/18 11:22:57;;;;;;;5.88;5.30;;;23.00;56.00;;;;;;5047435;28;20190;-69
2023/06/18 11:25:26;;;;;;;6.00;5.40;;;23.00;56.00;;;;;;5034316;28;20225;-68
2023/06/18 11:27:54;;;;;;;5.78;5.38;;;23.00;56.10;;;;;;5016436;28;20740;-69
2023/06/18 11:30:20;;;;;;;6.32;5.20;;;23.00;56.00;;;;;;5033076;28;20553;-70
2023/06/18 11:32:47;;;;;;;5.68;5.28;;;23.00;56.00;;;;;;5033088;28;20222;-72
2023/06/18 11:35:13;;;;;;;6.25;5.65;;;23.00;56.00;;;;;;5033305;28;20210;-70
2023/06/18 11:37:41;;;;;;;5.97;5.47;;;23.00;56.00;;;;;;5016435;28;20195;-69
2023/06/18 11:40:08;;;;;;;6.30;5.70;;;23.00;56.00;;;;;;5049472;28;20234;-69
2023/06/18 11:42:37;;;;;;;5.65;5.15;;;23.00;56.00;;;;;;5016026;28;20200;-70
2023/06/18 11:45:05;;;;;;;6.28;5.75;;;23.00;55.80;;;;;;5016411;28;20180;-69
2023/06/18 11:47:34;;;;;;;5.88;5.38;;;23.00;55.90;;;;;;5032525;28;20248;-69
2023/06/18 11:50:01;;;;;;;5.45;5.05;;;23.00;55.60;;;;;;5032573;28;20203;-70
2023/06/18 11:52:29;;;;;;;5.40;5.00;;;23.00;55.70;;;;;;5032308;28;20713;-71
2023/06/18 11:55:03;;;;;;;6.35;5.72;;;23.00;55.80;;;;;;5049158;28;20184;-70
2023/06/18 11:57:30;;;;;;;5.97;5.47;;;23.00;55.80;;;;;;5033392;28;20170;-71
2023/06/18 11:59:56;;;;;;;5.25;4.85;;;23.00;55.80;;;;;;5032525;28;20215;-70
2023/06/18 12:02:27;;;;;;;6.45;5.95;;;23.00;55.80;;;;;;5015949;28;20236;-70
2023/06/18 12:05:02;;;;;;;5.80;5.30;;;23.10;55.90;;;;;;5032084;28;20206;-70
2023/06/18 12:07:28;;;;;;;6.10;5.47;;;23.10;56.00;;;;;;5029914;28;20178;-70
2023/06/18 12:09:58;;;;;;;6.03;5.53;;;23.00;55.90;;;;;;5012542;28;20204;-70
2023/06/18 12:12:55;;;;;;;6.55;5.50;;;23.00;56.00;;;;;;5012309;28;20205;-70
2023/06/18 12:15:36;;;;;;;5.93;5.43;;;23.10;56.00;;;;;;5011010;28;20247;-70
2023/06/18 12:18:16;;;;;;;7.32;5.85;;;23.10;55.90;;;;;;4996020;28;20266;-70
2023/06/18 12:20:43;;;;;;;5.80;5.40;;;23.10;55.90;;;;;;5012273;28;20208;-70
2023/06/18 12:23:12;;;;;;;5.60;5.07;;;23.10;55.80;;;;;;5012217;28;20195;-70
2023/06/18 12:25:38;;;;;;;5.70;5.20;;;23.10;55.70;;;;;;4995863;28;20215;-70
2023/06/18 12:28:04;;;;;;;6.53;5.93;;;23.10;55.70;;;;;;5012367;28;20685;-70
2023/06/18 12:30:35;;;;;;;6.20;5.60;;;23.10;55.80;;;;;;5012024;28;20212;-69
2023/06/18 12:33:13;;;;;;;7.32;5.50;;;23.10;55.80;;;;;;5012138;28;20299;-69
2023/06/18 12:35:50;;;;;;;6.10;5.60;;;23.10;56.00;;;;;;5012263;28;20190;-69
2023/06/18 12:38:16;;;;;;;5.90;5.40;;;23.10;55.90;;;;;;5012015;28;20184;-70
2023/06/18 12:40:50;;;;;;;5.93;5.43;;;23.10;55.90;;;;;;5011925;28;20195;-69
2023/06/18 12:43:19;;;;;;;6.80;5.85;;;23.10;55.80;;;;;;4995919;28;20184;-70
2023/06/18 12:45:47;;;;;;;6.30;5.80;;;23.10;55.80;;;;;;5013141;28;20172;-70
2023/06/18 12:48:16;;;;;;;6.53;5.97;;;23.10;55.70;;;;;;5012020;28;20180;-71
2023/06/18 12:50:46;;;;;;;6.47;5.88;;;23.10;55.60;;;;;;5011923;28;20208;-70
2023/06/18 12:53:28;;;;;;;5.80;5.40;;;23.10;55.70;;;;;;5011831;28;20210;-70
2023/06/18 12:56:15;;;;;;;6.07;5.57;;;23.10;55.80;;;;;;5012149;28;20271;-71